Météo Nord-Pas-de-Calais   La météo au plus près de chez vous

Station météorologique

Observations météo à St Vaast La Hougue (50562)

50562001 17 m Dernier relevé à 16:48
21.8°C
Vent 38.2 km/h

Journée consultée

Mercredi 2 Septembre 2026

Synthèse de la journée

Périodes de référence en UTC

Température maximale

21.9°C

à 16:42

06h 06h

Température minimale

14.2°C

à 09:00

18h 18h

Rafale maximale

49 km/h

à 14:18

00h 00h

Précipitations

0 mm

Cumul quotidien

06h 06h

Graphiques de la journée

Heure locale Réduire

Données détaillées

Relevés météo

Pas de 6 minutes Afficher les relevés infra-horaires
Relevés météo détaillés à St Vaast La Hougue pour le Mercredi 2 Septembre 2026
Heure Température °C Vent moyen (raf.), km/h Précipitations mm
16:48 21.8 °C 27 km/h (38 km/h) 0 mm0 mm
16:42 21.9 °C 27 km/h (34 km/h) 0 mm0 mm
16:36 21.4 °C 30 km/h (38 km/h) 0 mm0 mm
16:30 21.3 °C 30 km/h (39 km/h) 0 mm0 mm
16:24 21.3 °C 32 km/h (39 km/h) 0 mm0 mm
16:18 21.2 °C 36 km/h (45 km/h) 0 mm0 mm
16:12 21.2 °C 38 km/h (46 km/h) 0 mm0 mm
16:06 21.2 °C 36 km/h (46 km/h) 0 mm0 mm
16:00 21.1 °C 36 km/h (42 km/h) 0 mm0 mm
15:54 21.2 °C 38 km/h (48 km/h) 0 mm0 mm
15:48 21.1 °C 38 km/h (46 km/h) 0 mm0 mm
15:42 21.3 °C 38 km/h (44 km/h) 0 mm0 mm
15:36 21.5 °C 38 km/h (45 km/h) 0 mm0 mm
15:30 21.5 °C 39 km/h (47 km/h) 0 mm0 mm
15:24 21.5 °C 39 km/h (47 km/h) 0 mm0 mm
15:18 21.2 °C 36 km/h (45 km/h) 0 mm0 mm
15:12 21.3 °C 36 km/h (47 km/h) 0 mm0 mm
15:06 21.3 °C 37 km/h (45 km/h) 0 mm0 mm
15:00 21.3 °C 33 km/h (44 km/h) 0 mm0 mm
14:54 21.3 °C 35 km/h (44 km/h) 0 mm0 mm
14:48 21.3 °C 37 km/h (44 km/h) 0 mm0 mm
14:42 21 °C 39 km/h (45 km/h) 0 mm0 mm
14:36 20.9 °C 40 km/h (48 km/h) 0 mm0 mm
14:30 20.7 °C 40 km/h (48 km/h) 0 mm0 mm
14:24 20.7 °C 39 km/h (46 km/h) 0 mm0 mm
14:18 20.6 °C 38 km/h (49 km/h) 0 mm0 mm
14:12 20.7 °C 37 km/h (46 km/h) 0 mm0 mm
14:06 20.7 °C 36 km/h (44 km/h) 0 mm0 mm
14:00 20.5 °C 35 km/h (40 km/h) 0 mm0 mm
13:54 20.4 °C 34 km/h (40 km/h) 0 mm0 mm
13:48 20.3 °C 35 km/h (40 km/h) 0 mm0 mm
13:42 20.5 °C 35 km/h (40 km/h) 0 mm0 mm
13:36 20.3 °C 36 km/h (42 km/h) 0 mm0 mm
13:30 20.2 °C 37 km/h (45 km/h) 0 mm0 mm
13:24 20.3 °C 38 km/h (45 km/h) 0 mm0 mm
13:18 20.2 °C 36 km/h (42 km/h) 0 mm0 mm
13:12 20.1 °C 35 km/h (43 km/h) 0 mm0 mm
13:06 20.1 °C 35 km/h (43 km/h) 0 mm0 mm
13:00 20 °C 30 km/h (39 km/h) 0 mm0 mm
12:54 20 °C 29 km/h (39 km/h) 0 mm0 mm
12:48 20 °C 30 km/h (38 km/h) 0 mm0 mm
12:42 20 °C 30 km/h (37 km/h) 0 mm0 mm
12:36 19.9 °C 29 km/h (37 km/h) 0 mm0 mm
12:30 19.8 °C 31 km/h (37 km/h) 0 mm0 mm
12:24 19.6 °C 28 km/h (37 km/h) 0 mm0 mm
12:18 19.8 °C 26 km/h (34 km/h) 0 mm0 mm
12:12 19.6 °C 27 km/h (35 km/h) 0 mm0 mm
12:06 19.5 °C 28 km/h (35 km/h) 0 mm0 mm
12:00 19.2 °C 27 km/h (34 km/h) 0 mm0 mm
11:54 19.1 °C 24 km/h (32 km/h) 0 mm0 mm
11:48 19 °C 22 km/h (31 km/h) 0 mm0 mm
11:42 18.9 °C 16 km/h (28 km/h) 0 mm0 mm
11:36 18.7 °C 13 km/h (20 km/h) 0 mm0 mm
11:30 18.6 °C 14 km/h (19 km/h) 0 mm0 mm
11:24 18.6 °C 18 km/h (23 km/h) 0 mm0 mm
11:18 18.6 °C 20 km/h (24 km/h) 0 mm0 mm
11:12 18.4 °C 21 km/h (24 km/h) 0 mm0 mm
11:06 18.2 °C 20 km/h (24 km/h) 0 mm0 mm
11:00 18.1 °C 22 km/h (25 km/h) 0 mm0 mm
10:54 18.1 °C 21 km/h (24 km/h) 0 mm0 mm
10:48 18 °C 21 km/h (26 km/h) 0 mm0 mm
10:42 17.8 °C 21 km/h (26 km/h) 0 mm0 mm
10:36 17.4 °C 19 km/h (26 km/h) 0 mm0 mm
10:30 17.3 °C 19 km/h (24 km/h) 0 mm0 mm
10:24 17.4 °C 19 km/h (24 km/h) 0 mm0 mm
10:18 17.2 °C 19 km/h (24 km/h) 0 mm0 mm
10:12 17 °C 19 km/h (23 km/h) 0 mm0 mm
10:06 16.9 °C 20 km/h (23 km/h) 0 mm0 mm
10:00 16.6 °C 20 km/h (23 km/h) 0 mm0 mm
09:54 16.7 °C 21 km/h (25 km/h) 0 mm0 mm
09:48 16.5 °C 21 km/h (25 km/h) 0 mm0 mm
09:42 16.4 °C 19 km/h (22 km/h) 0 mm0 mm
09:36 16.1 °C 19 km/h (23 km/h) 0 mm0 mm
09:30 16.1 °C 19 km/h (22 km/h) 0 mm0 mm
09:24 16 °C 20 km/h (24 km/h) 0 mm0 mm
09:18 15.6 °C 20 km/h (24 km/h) 0 mm0 mm
09:12 15.4 °C 19 km/h (22 km/h) 0 mm0 mm
09:06 15.2 °C 18 km/h (22 km/h) 0 mm0 mm
09:00 15 °C 17 km/h (21 km/h) 0 mm0 mm
08:54 14.7 °C 17 km/h (20 km/h) 0 mm0 mm
08:48 14.6 °C 17 km/h (20 km/h) 0 mm0 mm
08:42 14.4 °C 17 km/h (19 km/h) 0 mm0 mm
08:36 14.4 °C 16 km/h (19 km/h) 0 mm0 mm
08:30 14.4 °C 16 km/h (19 km/h) 0 mm0 mm
08:24 14.3 °C 15 km/h (19 km/h) 0 mm0 mm
08:18 14.3 °C 14 km/h (18 km/h) 0 mm0 mm
08:12 14.3 °C 15 km/h (19 km/h) 0 mm0 mm
08:06 14.3 °C 15 km/h (19 km/h) 0 mm0 mm
08:00 14.4 °C 15 km/h (18 km/h) 0 mm0 mm
07:54 14.5 °C 15 km/h (18 km/h) 0 mm0 mm
07:48 14.7 °C 17 km/h (23 km/h) 0 mm0 mm
07:42 14.7 °C 19 km/h (23 km/h) 0 mm0 mm
07:36 14.8 °C 17 km/h (23 km/h) 0 mm0 mm
07:30 14.8 °C 15 km/h (19 km/h) 0 mm0 mm
07:24 14.8 °C 13 km/h (17 km/h) 0 mm0 mm
07:18 14.7 °C 15 km/h (19 km/h) 0 mm0 mm
07:12 14.6 °C 15 km/h (19 km/h) 0 mm0 mm
07:06 14.7 °C 13 km/h (17 km/h) 0 mm0 mm
07:00 14.7 °C 14 km/h (18 km/h) 0 mm0 mm
06:54 14.8 °C 15 km/h (18 km/h) 0 mm0 mm
06:48 14.5 °C 16 km/h (19 km/h) 0 mm0 mm
06:42 14.5 °C 17 km/h (19 km/h) 0 mm0 mm
06:36 14.5 °C 16 km/h (19 km/h) 0 mm0 mm
06:30 14.5 °C 16 km/h (18 km/h) 0 mm0 mm
06:24 14.8 °C 15 km/h (18 km/h) 0 mm0 mm
06:18 14.9 °C 14 km/h (17 km/h) 0 mm0 mm
06:12 14.9 °C 12 km/h (15 km/h) 0 mm0 mm
06:06 14.9 °C 10 km/h (13 km/h) 0 mm0 mm
06:00 14.8 °C 10 km/h (13 km/h) 0 mm0 mm
05:54 14.9 °C 9 km/h (12 km/h) 0 mm0 mm
05:48 15.1 °C 9 km/h (12 km/h) 0 mm0 mm
05:42 15.1 °C 10 km/h (12 km/h) 0 mm0 mm
05:36 15.1 °C 9 km/h (12 km/h) 0 mm0 mm
05:30 15.2 °C 9 km/h (12 km/h) 0 mm0 mm
05:24 15.3 °C 9 km/h (12 km/h) 0 mm0 mm
05:18 15.3 °C 8 km/h (12 km/h) 0 mm0 mm
05:12 15.4 °C 9 km/h (12 km/h) 0 mm0 mm
05:06 15.5 °C 8 km/h (11 km/h) 0 mm0 mm
05:00 15.6 °C 9 km/h (12 km/h) 0 mm0 mm
04:54 15.6 °C 9 km/h (13 km/h) 0 mm0 mm
04:48 15.5 °C 9 km/h (13 km/h) 0 mm0 mm
04:42 15.4 °C 9 km/h (12 km/h) 0 mm0 mm
04:36 15.3 °C 9 km/h (12 km/h) 0 mm0 mm
04:30 15.3 °C 10 km/h (15 km/h) 0 mm0 mm
04:24 15.3 °C 12 km/h (15 km/h) 0 mm0 mm
04:18 15.4 °C 13 km/h (16 km/h) 0 mm0 mm
04:12 15.3 °C 13 km/h (16 km/h) 0 mm0 mm
04:06 15.6 °C 12 km/h (16 km/h) 0 mm0 mm
04:00 15.7 °C 12 km/h (14 km/h) 0 mm0 mm
03:54 15.8 °C 12 km/h (14 km/h) 0 mm0 mm
03:48 15.8 °C 12 km/h (15 km/h) 0 mm0 mm
03:42 15.8 °C 10 km/h (14 km/h) 0 mm0 mm
03:36 15.8 °C 11 km/h (15 km/h) 0 mm0 mm
03:30 15.9 °C 12 km/h (16 km/h) 0 mm0 mm
03:24 15.8 °C 10 km/h (13 km/h) 0 mm0 mm
03:18 15.6 °C 9 km/h (12 km/h) 0 mm0 mm
03:12 15.6 °C 8 km/h (11 km/h) 0 mm0 mm
03:06 15.7 °C 8 km/h (11 km/h) 0 mm0 mm
03:00 15.8 °C 9 km/h (13 km/h) 0 mm0 mm
02:54 15.6 °C 9 km/h (13 km/h) 0 mm0 mm
02:48 15.7 °C 10 km/h (12 km/h) 0 mm0 mm
02:42 15.6 °C 10 km/h (15 km/h) 0 mm0 mm
02:36 15.8 °C 11 km/h (15 km/h) 0 mm0 mm
02:30 15.8 °C 11 km/h (13 km/h) 0 mm0 mm
02:24 15.7 °C 10 km/h (14 km/h) 0 mm0 mm
02:18 15.7 °C 11 km/h (14 km/h) 0 mm0 mm
02:12 15.6 °C 12 km/h (14 km/h) 0 mm0 mm
02:06 15.6 °C 12 km/h (14 km/h) 0 mm0 mm
02:00 15.8 °C 13 km/h (16 km/h) 0 mm0 mm
01:54 15.9 °C 14 km/h (16 km/h) 0 mm0 mm
01:48 16.1 °C 13 km/h (16 km/h) 0 mm0 mm
01:42 16 °C 12 km/h (17 km/h) 0 mm0 mm
01:36 15.9 °C 13 km/h (17 km/h) 0 mm0 mm
01:30 16 °C 12 km/h (15 km/h) 0 mm0 mm
01:24 16.2 °C 12 km/h (14 km/h) 0 mm0 mm
01:18 16.2 °C 11 km/h (14 km/h) 0 mm0 mm
01:12 16.2 °C 11 km/h (14 km/h) 0 mm0 mm
01:06 16.2 °C 12 km/h (14 km/h) 0 mm0 mm
01:00 16.3 °C 12 km/h (15 km/h) 0 mm0 mm
00:54 16.3 °C 12 km/h (15 km/h) 0 mm0 mm
00:48 16.3 °C 11 km/h (14 km/h) 0 mm0 mm
00:42 16.2 °C 11 km/h (15 km/h) 0 mm0 mm
00:36 16.4 °C 11 km/h (14 km/h) 0 mm0 mm
00:30 16.3 °C 11 km/h (15 km/h) 0 mm0 mm
00:24 16.3 °C 10 km/h (15 km/h) 0 mm0 mm
00:18 16.3 °C 10 km/h (15 km/h) 0 mm0 mm
00:12 16.3 °C 11 km/h (15 km/h) 0 mm0 mm
00:06 16.4 °C 10 km/h (14 km/h) 0 mm0 mm
00:00 16.4 °C 9 km/h (13 km/h) 0 mm0 mm

Données via Météo-France

Relevés météo à St Vaast La Hougue

Cette page rassemble les observations de la station de St Vaast La Hougue : température, humidité, vent, précipitations et pression atmosphérique. Les graphiques facilitent le suivi de la journée, tandis que le tableau donne accès aux mesures horaires et infra-horaires disponibles.

Pour replacer ces mesures dans leur contexte, consultez la climatologie de St Vaast La Hougue. Retrouvez aussi la carte des observations météo en temps réel.